createdAt,value
2023-09-28T00:01:37.688Z,19.02
2023-09-28T00:04:07.563Z,19.42
2023-09-28T00:06:35.092Z,18.02
2023-09-28T00:09:01.990Z,18.27
2023-09-28T00:11:29.228Z,17.88
2023-09-28T00:13:56.302Z,17.92
2023-09-28T00:16:23.859Z,18.67
2023-09-28T00:18:50.706Z,19.02
2023-09-28T00:21:17.941Z,17.63
2023-09-28T00:23:45.256Z,18.00
2023-09-28T00:26:13.525Z,18.55
2023-09-28T00:28:40.839Z,18.38
2023-09-28T00:31:07.791Z,18.35
2023-09-28T00:33:34.888Z,18.60
2023-09-28T00:36:01.793Z,18.27
2023-09-28T00:38:29.053Z,18.15
2023-09-28T00:40:56.520Z,19.42
2023-09-28T00:43:30.998Z,18.40
2023-09-28T00:45:58.849Z,17.88
2023-09-28T00:48:26.250Z,17.73
2023-09-28T00:50:53.612Z,17.58
2023-09-28T00:53:22.628Z,16.98
2023-09-28T00:55:50.259Z,17.73
2023-09-28T00:58:17.620Z,17.60
2023-09-28T01:00:45.916Z,18.15
2023-09-28T01:03:13.354Z,17.88
2023-09-28T01:05:41.831Z,16.77
2023-09-28T01:08:13.631Z,18.33
2023-09-28T01:10:44.543Z,17.80
2023-09-28T01:13:12.567Z,18.55
2023-09-28T01:15:43.917Z,18.48
2023-09-28T01:18:16.854Z,18.15
2023-09-28T01:23:11.869Z,17.90
2023-09-28T01:25:39.738Z,17.73
2023-09-28T01:28:11.410Z,16.98
2023-09-28T01:30:38.950Z,17.00
2023-09-28T01:33:06.513Z,17.20
2023-09-28T01:35:33.436Z,17.55
2023-09-28T01:38:14.988Z,17.42
2023-09-28T01:40:43.222Z,16.75
2023-09-28T01:43:10.506Z,17.55
2023-09-28T01:45:37.830Z,16.95
2023-09-28T01:48:05.437Z,17.23
2023-09-28T01:50:33.220Z,17.92
2023-09-28T01:53:00.309Z,18.35
2023-09-28T01:55:27.680Z,18.15
2023-09-28T01:57:54.578Z,17.08
2023-09-28T02:00:23.099Z,19.10
2023-09-28T02:02:53.315Z,19.13
2023-09-28T02:05:24.508Z,18.00
2023-09-28T02:07:51.994Z,18.90
2023-09-28T02:10:19.012Z,18.75
2023-09-28T02:12:46.264Z,19.85
2023-09-28T02:15:16.700Z,20.10
2023-09-28T02:17:47.264Z,18.75
2023-09-28T02:20:21.933Z,21.13
2023-09-28T02:22:49.727Z,19.17
2023-09-28T02:25:21.411Z,19.60
2023-09-28T02:27:52.600Z,20.67
2023-09-28T02:30:21.523Z,18.85
2023-09-28T02:32:51.079Z,19.17
2023-09-28T02:35:19.630Z,20.05
2023-09-28T02:37:49.817Z,18.30
2023-09-28T02:40:19.282Z,19.63
2023-09-28T02:42:49.454Z,19.83
2023-09-28T02:45:16.864Z,18.83
2023-09-28T02:47:45.362Z,19.23
2023-09-28T02:50:14.663Z,18.42
2023-09-28T02:52:44.695Z,18.48
2023-09-28T02:55:13.646Z,18.48
2023-09-28T02:57:41.177Z,19.52
2023-09-28T03:00:26.042Z,18.23
2023-09-28T03:02:54.277Z,17.75
2023-09-28T03:05:22.289Z,19.85
2023-09-28T03:07:49.649Z,19.08
2023-09-28T03:10:18.264Z,18.65
2023-09-28T03:12:52.608Z,18.65
2023-09-28T03:15:21.367Z,18.08
2023-09-28T03:17:48.612Z,18.20
2023-09-28T03:20:23.099Z,17.38
2023-09-28T03:22:51.215Z,17.15
2023-09-28T03:25:23.104Z,18.60
2023-09-28T03:27:55.216Z,19.48
2023-09-28T03:30:24.874Z,18.95
2023-09-28T03:32:52.494Z,17.67
2023-09-28T03:35:21.141Z,18.42
2023-09-28T03:37:49.165Z,17.23
2023-09-28T03:40:18.006Z,17.23
2023-09-28T03:42:48.045Z,17.38
2023-09-28T03:45:17.013Z,17.65
2023-09-28T03:47:45.561Z,18.27
2023-09-28T03:50:14.155Z,18.77
2023-09-28T03:52:42.784Z,18.25
2023-09-28T03:55:17.243Z,17.90
2023-09-28T03:57:44.473Z,17.48
2023-09-28T04:00:15.752Z,17.48
2023-09-28T04:02:47.033Z,16.90
2023-09-28T04:05:16.897Z,17.77
2023-09-28T04:07:44.639Z,18.40
2023-09-28T04:10:13.166Z,18.30
2023-09-28T04:12:40.541Z,19.00
2023-09-28T04:15:08.974Z,18.35
2023-09-28T04:17:36.585Z,19.40
2023-09-28T04:20:07.595Z,18.77
2023-09-28T04:22:35.239Z,19.08
2023-09-28T04:25:02.791Z,19.67
2023-09-28T04:27:29.709Z,17.75
2023-09-28T04:29:56.965Z,18.90
2023-09-28T04:32:24.230Z,18.00
2023-09-28T04:34:51.760Z,18.35
2023-09-28T04:37:19.819Z,16.55
2023-09-28T04:39:47.087Z,17.35
2023-09-28T04:42:16.359Z,15.73
2023-09-28T04:44:45.262Z,16.00
2023-09-28T04:47:13.060Z,16.42
2023-09-28T04:49:43.936Z,16.95
2023-09-28T04:52:14.950Z,16.45
2023-09-28T04:54:42.727Z,14.73
2023-09-28T04:57:10.046Z,16.83
2023-09-28T04:59:41.667Z,16.08
2023-09-28T05:02:09.922Z,15.35
2023-09-28T05:04:37.079Z,17.25
2023-09-28T05:07:05.468Z,16.17
2023-09-28T05:09:33.018Z,16.88
2023-09-28T05:12:01.767Z,17.58
2023-09-28T05:14:29.089Z,16.13
2023-09-28T05:16:56.554Z,15.65
2023-09-28T05:19:23.655Z,16.23
2023-09-28T05:21:51.232Z,16.58
2023-09-28T05:24:18.530Z,17.17
2023-09-28T05:26:45.473Z,16.23
2023-09-28T05:29:12.804Z,14.82
2023-09-28T05:31:39.827Z,15.30
2023-09-28T05:34:07.691Z,16.02
2023-09-28T05:36:35.196Z,16.60
2023-09-28T05:39:04.760Z,17.45
2023-09-28T05:41:32.572Z,16.88
2023-09-28T05:43:59.654Z,16.73
2023-09-28T05:46:26.999Z,15.95
2023-09-28T05:48:54.794Z,15.63
2023-09-28T05:51:22.093Z,14.00
2023-09-28T05:53:52.358Z,13.65
2023-09-28T05:56:19.455Z,13.85
2023-09-28T05:58:46.883Z,14.18
2023-09-28T06:01:14.974Z,13.32
2023-09-28T06:03:43.138Z,14.45
2023-09-28T06:06:17.828Z,13.40
2023-09-28T06:08:47.981Z,13.43
2023-09-28T06:11:16.567Z,13.10
2023-09-28T06:16:16.333Z,12.98
2023-09-28T06:18:45.538Z,13.50
2023-09-28T06:21:12.421Z,13.80
2023-09-28T06:23:39.403Z,12.80
2023-09-28T06:26:06.589Z,13.10
2023-09-28T06:28:33.596Z,11.90
2023-09-28T06:31:00.519Z,12.88
2023-09-28T06:33:27.647Z,12.98
2023-09-28T06:35:55.662Z,12.40
2023-09-28T06:38:22.594Z,12.55
2023-09-28T06:40:50.189Z,11.88
2023-09-28T06:43:17.075Z,11.45
2023-09-28T06:45:47.184Z,12.30
2023-09-28T06:48:20.446Z,12.77
2023-09-28T06:50:47.925Z,11.32
2023-09-28T06:53:17.275Z,10.82
2023-09-28T06:55:49.694Z,11.18
2023-09-28T06:58:21.267Z,11.18
2023-09-28T07:00:48.272Z,10.05
2023-09-28T07:03:16.237Z,10.60
2023-09-28T07:05:43.775Z,10.00
2023-09-28T07:08:11.512Z,10.30
2023-09-28T07:10:39.614Z,13.02
2023-09-28T07:13:07.651Z,10.13
2023-09-28T07:15:35.368Z,9.82
2023-09-28T07:18:02.830Z,8.60
2023-09-28T07:20:30.077Z,9.63
2023-09-28T07:22:57.820Z,9.70
2023-09-28T07:25:28.201Z,8.73
2023-09-28T07:27:55.479Z,9.65
2023-09-28T07:30:23.894Z,8.75
2023-09-28T07:32:51.592Z,8.10
2023-09-28T07:35:19.666Z,8.65
2023-09-28T07:37:46.860Z,7.80
2023-09-28T07:40:18.022Z,8.90
2023-09-28T07:45:14.834Z,8.65
2023-09-28T07:47:42.211Z,8.43
2023-09-28T07:50:16.733Z,8.70
2023-09-28T07:52:44.044Z,7.78
2023-09-28T07:55:12.209Z,7.30
2023-09-28T07:57:55.638Z,7.68
2023-09-28T08:00:28.534Z,7.55
2023-09-28T08:02:56.661Z,7.65
2023-09-28T08:05:23.726Z,7.63
2023-09-28T08:08:00.115Z,7.25
2023-09-28T08:10:35.348Z,8.27
2023-09-28T08:13:02.483Z,7.03
2023-09-28T08:15:36.774Z,6.53
2023-09-28T08:18:05.389Z,6.97
2023-09-28T08:20:35.324Z,7.18
2023-09-28T08:23:04.920Z,7.35
2023-09-28T08:25:32.750Z,6.85
2023-09-28T08:28:00.616Z,6.25
2023-09-28T08:30:27.572Z,6.82
2023-09-28T08:32:54.985Z,6.88
2023-09-28T08:35:22.159Z,6.13
2023-09-28T08:37:49.387Z,6.60
2023-09-28T08:40:16.439Z,6.75
2023-09-28T08:42:47.673Z,7.22
2023-09-28T08:45:17.527Z,6.78
2023-09-28T08:47:54.418Z,6.60
2023-09-28T08:50:27.364Z,6.75
2023-09-28T08:52:56.005Z,6.70
2023-09-28T08:55:23.417Z,7.15
2023-09-28T08:57:50.679Z,6.10
2023-09-28T09:00:24.041Z,5.95
2023-09-28T09:02:53.083Z,6.30
2023-09-28T09:05:21.564Z,12.20
2023-09-28T09:07:50.956Z,6.60
2023-09-28T09:10:21.831Z,6.03
2023-09-28T09:12:49.040Z,6.28
2023-09-28T09:15:16.043Z,6.30
2023-09-28T09:17:43.244Z,6.15
2023-09-28T09:20:11.322Z,6.22
2023-09-28T09:22:53.349Z,6.75
2023-09-28T09:25:26.065Z,6.00
2023-09-28T09:27:53.649Z,6.15
2023-09-28T09:30:22.134Z,6.00
2023-09-28T09:32:49.702Z,6.32
2023-09-28T09:35:17.880Z,6.28
2023-09-28T09:37:52.177Z,5.85
2023-09-28T09:40:19.592Z,5.60
2023-09-28T09:42:46.485Z,6.30
2023-09-28T09:45:13.610Z,5.25
2023-09-28T09:47:49.037Z,5.57
2023-09-28T09:50:17.803Z,5.35
2023-09-28T09:52:48.672Z,5.75
2023-09-28T09:55:16.106Z,6.80
2023-09-28T09:57:43.902Z,5.78
2023-09-28T10:00:17.210Z,5.53
2023-09-28T10:02:46.714Z,5.55
2023-09-28T10:05:15.220Z,5.47
2023-09-28T10:07:47.968Z,5.38
2023-09-28T10:10:16.557Z,5.38
2023-09-28T10:12:43.904Z,6.45
2023-09-28T10:15:12.022Z,5.55
2023-09-28T10:17:39.654Z,5.03
2023-09-28T10:20:09.879Z,5.88
2023-09-28T10:22:41.357Z,6.07
2023-09-28T10:25:08.629Z,6.22
2023-09-28T10:27:37.794Z,5.30
2023-09-28T10:30:22.403Z,5.80
2023-09-28T10:32:53.360Z,5.72
2023-09-28T10:35:28.576Z,5.60
2023-09-28T10:38:21.567Z,5.95
2023-09-28T10:40:55.742Z,6.10
2023-09-28T10:43:34.975Z,6.00
2023-09-28T10:46:06.563Z,5.45
2023-09-28T10:48:40.975Z,5.68
2023-09-28T10:51:16.844Z,5.75
2023-09-28T10:53:45.214Z,5.50
2023-09-28T10:56:13.028Z,5.57
2023-09-28T10:58:52.020Z,8.35
2023-09-28T11:01:18.955Z,5.63
2023-09-28T11:03:47.422Z,5.80
2023-09-28T11:06:14.923Z,5.63
2023-09-28T11:08:43.752Z,5.55
2023-09-28T11:11:10.947Z,6.68
2023-09-28T11:13:38.856Z,6.25
2023-09-28T11:16:06.027Z,6.10
2023-09-28T11:18:33.066Z,5.90
2023-09-28T11:21:01.077Z,5.68
2023-09-28T11:23:29.264Z,5.25
2023-09-28T11:25:57.063Z,6.28
2023-09-28T11:28:24.758Z,5.72
2023-09-28T11:31:13.196Z,6.10
2023-09-28T11:33:41.271Z,6.53
2023-09-28T11:36:15.532Z,5.38
2023-09-28T11:38:42.810Z,6.07
2023-09-28T11:41:09.854Z,6.15
2023-09-28T11:43:54.200Z,5.72
2023-09-28T11:46:25.659Z,5.32
2023-09-28T11:49:11.342Z,5.32
2023-09-28T11:51:41.709Z,4.93
2023-09-28T11:54:10.099Z,6.15
2023-09-28T11:56:37.774Z,5.75
2023-09-28T11:59:05.415Z,5.95
2023-09-28T12:01:33.877Z,5.47
2023-09-28T12:04:01.243Z,5.72
2023-09-28T12:06:28.809Z,5.90
2023-09-28T12:08:56.785Z,5.88
2023-09-28T12:11:23.864Z,5.70
2023-09-28T12:13:51.203Z,5.97
2023-09-28T12:16:18.192Z,6.55
2023-09-28T12:18:45.279Z,5.82
2023-09-28T12:21:12.920Z,5.50
2023-09-28T12:23:40.377Z,5.45
2023-09-28T12:26:07.691Z,5.80
2023-09-28T12:28:34.682Z,6.30
2023-09-28T12:31:01.825Z,5.93
2023-09-28T12:33:29.289Z,5.18
2023-09-28T12:35:57.298Z,5.75
2023-09-28T12:38:24.961Z,6.28
2023-09-28T12:40:52.333Z,5.78
2023-09-28T12:43:19.330Z,5.90
2023-09-28T12:45:46.333Z,5.85
2023-09-28T12:48:18.526Z,6.07
2023-09-28T12:50:48.938Z,5.90
2023-09-28T12:53:18.545Z,6.30
2023-09-28T12:55:45.957Z,5.57
2023-09-28T12:58:13.470Z,5.53
2023-09-28T13:00:40.706Z,6.10
2023-09-28T13:03:09.494Z,5.78
2023-09-28T13:05:41.461Z,5.60
2023-09-28T13:08:14.800Z,6.28
2023-09-28T13:10:42.399Z,5.75
2023-09-28T13:13:09.486Z,5.45
2023-09-28T13:15:36.585Z,5.03
2023-09-28T13:18:08.404Z,7.05
2023-09-28T13:20:40.432Z,5.63
2023-09-28T13:23:08.128Z,4.70
2023-09-28T13:25:35.439Z,5.60
2023-09-28T13:28:02.835Z,5.47
2023-09-28T13:30:31.180Z,5.72
2023-09-28T13:32:58.661Z,5.80
2023-09-28T13:35:26.451Z,5.28
2023-09-28T13:37:53.625Z,5.47
2023-09-28T13:40:27.377Z,5.55
2023-09-28T13:42:56.355Z,5.75
2023-09-28T13:45:23.585Z,5.70
2023-09-28T13:47:51.041Z,5.18
2023-09-28T13:50:18.558Z,6.35
2023-09-28T13:52:51.131Z,6.05
2023-09-28T13:55:21.232Z,5.63
2023-09-28T13:57:48.572Z,5.65
2023-09-28T14:00:28.358Z,6.43
2023-09-28T14:03:00.567Z,5.65
2023-09-28T14:05:28.359Z,5.15
2023-09-28T14:07:57.504Z,5.28
2023-09-28T14:10:25.576Z,5.65
2023-09-28T14:12:52.882Z,5.03
2023-09-28T14:15:20.239Z,5.13
2023-09-28T14:17:49.254Z,5.10
2023-09-28T14:20:17.177Z,5.60
2023-09-28T14:22:49.936Z,5.07
2023-09-28T14:27:46.781Z,5.28
2023-09-28T14:30:18.075Z,5.10
2023-09-28T14:32:46.178Z,5.97
2023-09-28T14:35:13.846Z,5.15
2023-09-28T14:37:40.993Z,5.25
2023-09-28T14:40:16.767Z,5.75
2023-09-28T14:42:45.872Z,5.65
2023-09-28T14:45:14.562Z,5.32
2023-09-28T14:47:42.796Z,5.47
2023-09-28T14:50:11.981Z,5.55
2023-09-28T14:52:40.841Z,5.63
2023-09-28T14:55:09.174Z,5.85
2023-09-28T14:57:36.581Z,5.25
2023-09-28T15:00:13.524Z,5.68
2023-09-28T15:02:41.657Z,5.30
2023-09-28T15:05:10.959Z,4.72
2023-09-28T15:07:38.446Z,5.70
2023-09-28T15:10:06.161Z,5.97
2023-09-28T15:12:33.712Z,5.65
2023-09-28T15:15:01.568Z,6.75
2023-09-28T15:17:29.479Z,6.28
2023-09-28T15:19:57.076Z,5.90
2023-09-28T15:22:24.413Z,6.03
2023-09-28T15:24:52.409Z,5.82
2023-09-28T15:27:19.762Z,6.50
2023-09-28T15:29:46.689Z,5.88
2023-09-28T15:32:15.220Z,5.97
2023-09-28T15:34:42.769Z,6.78
2023-09-28T15:37:10.722Z,6.53
2023-09-28T15:39:38.211Z,5.72
2023-09-28T15:42:07.923Z,6.82
2023-09-28T15:44:35.843Z,6.18
2023-09-28T15:47:03.479Z,7.00
2023-09-28T15:49:30.937Z,5.82
2023-09-28T15:51:58.336Z,6.35
2023-09-28T15:54:25.307Z,6.95
2023-09-28T15:56:52.274Z,6.20
2023-09-28T15:59:19.300Z,6.25
2023-09-28T16:01:48.963Z,6.75
2023-09-28T16:04:16.510Z,7.18
2023-09-28T16:06:43.556Z,6.00
2023-09-28T16:09:10.947Z,5.80
2023-09-28T16:11:38.031Z,6.53
2023-09-28T16:14:05.309Z,6.68
2023-09-28T16:16:32.576Z,7.18
2023-09-28T16:18:59.575Z,7.88
2023-09-28T16:21:26.452Z,6.93
2023-09-28T16:23:56.081Z,6.97
2023-09-28T16:26:25.003Z,6.90
2023-09-28T16:28:52.579Z,7.18
2023-09-28T16:31:19.520Z,8.00
2023-09-28T16:33:48.188Z,7.25
2023-09-28T16:36:15.019Z,7.60
2023-09-28T16:38:42.323Z,7.35
2023-09-28T16:41:09.449Z,7.78
2023-09-28T16:43:36.403Z,7.97
2023-09-28T16:46:04.190Z,7.63
2023-09-28T16:48:31.505Z,9.65
2023-09-28T16:50:59.027Z,8.52
2023-09-28T16:53:26.017Z,8.25
2023-09-28T16:55:54.116Z,9.13
2023-09-28T16:58:22.419Z,8.00
2023-09-28T17:00:49.524Z,8.98
2023-09-28T17:03:16.589Z,8.38
2023-09-28T17:05:43.756Z,8.95
2023-09-28T17:08:10.747Z,8.77
2023-09-28T17:10:37.705Z,9.02
2023-09-28T17:13:04.798Z,9.63
2023-09-28T17:15:32.057Z,9.38
2023-09-28T17:18:10.073Z,8.73
2023-09-28T17:20:45.908Z,9.63
2023-09-28T17:23:13.520Z,11.27
2023-09-28T17:25:40.465Z,10.73
2023-09-28T17:28:07.758Z,11.10
2023-09-28T17:30:35.211Z,10.77
2023-09-28T17:33:02.590Z,11.15
2023-09-28T17:35:31.404Z,10.32
2023-09-28T17:37:58.789Z,10.25
2023-09-28T17:40:26.385Z,9.23
2023-09-28T17:42:53.772Z,12.50
2023-09-28T17:45:21.074Z,11.80
2023-09-28T17:47:50.551Z,47.28
2023-09-28T17:50:18.200Z,17.35
2023-09-28T17:52:45.107Z,13.15
2023-09-28T17:55:12.425Z,15.00
2023-09-28T17:57:40.578Z,15.38
2023-09-28T18:00:09.650Z,16.98
2023-09-28T18:02:37.061Z,16.88
2023-09-28T18:05:04.533Z,17.67
2023-09-28T18:07:31.807Z,18.10
2023-09-28T18:09:59.115Z,19.00
2023-09-28T18:12:26.471Z,19.17
2023-09-28T18:14:53.532Z,17.27
2023-09-28T18:17:20.850Z,18.42
2023-09-28T18:19:48.897Z,19.80
2023-09-28T18:22:16.165Z,19.30
2023-09-28T18:24:43.847Z,18.85
2023-09-28T18:27:11.172Z,21.73
2023-09-28T18:29:38.561Z,19.70
2023-09-28T18:32:05.990Z,20.75
2023-09-28T18:34:36.693Z,19.73
2023-09-28T18:37:03.629Z,19.50
2023-09-28T18:39:30.490Z,20.10
2023-09-28T18:41:58.274Z,20.35
2023-09-28T18:44:25.143Z,20.60
2023-09-28T18:46:52.186Z,20.52
2023-09-28T18:49:22.093Z,20.10
2023-09-28T18:51:50.269Z,19.85
2023-09-28T18:54:17.214Z,19.02
2023-09-28T18:56:44.657Z,20.50
2023-09-28T18:59:12.130Z,20.23
2023-09-28T19:01:39.952Z,20.23
2023-09-28T19:04:07.979Z,19.48
2023-09-28T19:06:35.341Z,19.80
2023-09-28T19:09:02.638Z,18.65
2023-09-28T19:11:29.938Z,20.35
2023-09-28T19:13:57.011Z,19.80
2023-09-28T19:16:24.421Z,19.77
2023-09-28T19:18:51.715Z,19.90
2023-09-28T19:21:19.014Z,19.52
2023-09-28T19:23:45.944Z,59.92
2023-09-28T19:26:14.239Z,22.95
2023-09-28T19:28:41.466Z,20.45
2023-09-28T19:31:08.378Z,18.92
2023-09-28T19:33:35.709Z,19.38
2023-09-28T19:36:09.730Z,19.27
2023-09-28T19:38:37.489Z,18.20
2023-09-28T19:41:04.817Z,19.38
2023-09-28T19:43:32.458Z,18.20
2023-09-28T19:46:00.054Z,18.35
2023-09-28T19:48:27.553Z,17.52
2023-09-28T19:51:01.788Z,19.67
2023-09-28T19:53:29.057Z,18.98
2023-09-28T19:55:56.381Z,18.20
2023-09-28T19:58:25.155Z,16.50
2023-09-28T20:00:54.475Z,18.23
2023-09-28T20:03:21.776Z,18.55
2023-09-28T20:05:49.258Z,17.27
2023-09-28T20:08:16.251Z,16.58
2023-09-28T20:10:43.564Z,16.80
2023-09-28T20:13:10.510Z,17.20
2023-09-28T20:15:38.428Z,17.60
2023-09-28T20:18:06.492Z,16.95
2023-09-28T20:20:33.956Z,105.55
2023-09-28T20:23:01.215Z,34.78
2023-09-28T20:25:28.464Z,16.13
2023-09-28T20:27:55.348Z,16.38
2023-09-28T20:30:22.692Z,16.55
2023-09-28T20:32:50.169Z,15.85
2023-09-28T20:35:17.573Z,14.65
2023-09-28T20:37:44.729Z,15.02
2023-09-28T20:40:12.284Z,15.63
2023-09-28T20:42:39.413Z,14.88
2023-09-28T20:45:06.907Z,15.73
2023-09-28T20:47:36.433Z,14.05
2023-09-28T20:50:05.473Z,14.60
2023-09-28T20:52:32.653Z,14.48
2023-09-28T20:54:59.927Z,12.75
2023-09-28T20:57:27.308Z,14.00
2023-09-28T20:59:57.405Z,13.65
2023-09-28T21:02:24.901Z,14.27
2023-09-28T21:04:52.390Z,14.77
2023-09-28T21:07:19.388Z,13.95
2023-09-28T21:09:47.038Z,14.27
2023-09-28T21:12:14.766Z,13.65
2023-09-28T21:14:42.233Z,15.20
2023-09-28T21:17:09.466Z,15.32
2023-09-28T21:19:36.814Z,14.57
2023-09-28T21:22:03.643Z,14.95
2023-09-28T21:24:30.872Z,15.90
2023-09-28T21:26:58.149Z,14.25
2023-09-28T21:29:25.051Z,14.43
2023-09-28T21:31:52.527Z,14.23
2023-09-28T21:34:19.828Z,14.98
2023-09-28T21:36:47.460Z,14.77
2023-09-28T21:39:14.317Z,15.00
2023-09-28T21:41:41.660Z,14.50
2023-09-28T21:44:09.048Z,14.70
2023-09-28T21:46:35.882Z,13.77
2023-09-28T21:49:03.127Z,13.65
2023-09-28T21:51:30.742Z,13.82
2023-09-28T21:53:58.010Z,13.82
2023-09-28T21:56:25.914Z,13.48
2023-09-28T21:58:57.045Z,14.70
2023-09-28T22:01:24.315Z,15.18
2023-09-28T22:03:51.507Z,14.60
2023-09-28T22:06:18.871Z,14.88
2023-09-28T22:08:46.177Z,13.95
2023-09-28T22:11:13.081Z,13.02
2023-09-28T22:13:40.061Z,12.73
2023-09-28T22:16:07.076Z,13.00
2023-09-28T22:18:34.542Z,13.65
2023-09-28T22:21:01.803Z,12.82
2023-09-28T22:23:28.837Z,12.55
2023-09-28T22:25:56.307Z,13.18
2023-09-28T22:28:23.598Z,12.05
2023-09-28T22:30:50.475Z,11.75
2023-09-28T22:33:17.934Z,12.43
2023-09-28T22:35:45.438Z,11.75
2023-09-28T22:38:12.873Z,12.55
2023-09-28T22:40:40.140Z,11.73
2023-09-28T22:43:07.095Z,12.00
2023-09-28T22:45:34.291Z,11.95
2023-09-28T22:48:01.970Z,11.55
2023-09-28T22:50:29.578Z,12.00
2023-09-28T22:52:56.868Z,11.57
2023-09-28T22:55:24.109Z,13.27
2023-09-28T22:57:51.189Z,11.23
2023-09-28T23:00:19.203Z,12.15
2023-09-28T23:02:46.700Z,11.75
2023-09-28T23:05:14.082Z,11.90
2023-09-28T23:07:42.552Z,12.20
2023-09-28T23:10:13.908Z,12.10
2023-09-28T23:12:42.175Z,12.30
2023-09-28T23:15:13.379Z,11.13
2023-09-28T23:17:41.433Z,11.10
2023-09-28T23:20:11.332Z,12.55
2023-09-28T23:22:44.634Z,12.02
2023-09-28T23:25:13.606Z,12.23
2023-09-28T23:27:45.060Z,12.02
2023-09-28T23:30:18.719Z,11.38
2023-09-28T23:32:47.793Z,11.80
2023-09-28T23:35:19.810Z,11.85
2023-09-28T23:37:48.950Z,11.98
2023-09-28T23:40:22.440Z,11.45
2023-09-28T23:42:50.665Z,11.63
2023-09-28T23:45:18.237Z,11.25
2023-09-28T23:47:46.020Z,11.15
2023-09-28T23:50:13.645Z,13.13
2023-09-28T23:52:46.919Z,11.95
2023-09-28T23:55:16.313Z,12.20
2023-09-28T23:57:45.066Z,11.65
